Time,TemperatureF,DewpointF,PressureIn,WindDirection,WindDirectionDegrees,WindSpeedMPH,WindSpeedGustMPH,Humidity,HourlyPrecipIn,Conditions,Clouds,dailyrainin,SoftwareType,DateUTC
2013-03-02 00:03:00,21.0,-5.6,30.30,NNE,32,0.0,4.0,30,0.00,,,0.00,meteohub,2013-03-02 06:03:00,
2013-03-02 00:08:00,20.8,-5.8,30.30,NNE,32,0.0,4.0,30,0.00,,,0.00,meteohub,2013-03-02 06:08:00,
2013-03-02 00:13:00,20.8,-5.8,30.30,NNE,32,0.0,4.0,30,0.00,,,0.00,meteohub,2013-03-02 06:13:00,
2013-03-02 00:18:00,20.7,-5.8,30.30,NNE,32,0.0,0.0,30,0.00,,,0.00,meteohub,2013-03-02 06:18:00,
2013-03-02 00:23:00,20.8,-4.4,30.30,NNE,32,0.0,0.0,32,0.00,,,0.00,meteohub,2013-03-02 06:23:00,
2013-03-02 00:28:00,21.0,-3.6,30.30,NNE,32,4.0,0.0,33,0.00,,,0.00,meteohub,2013-03-02 06:28:00,
2013-03-02 00:33:00,21.0,-2.9,30.30,NNE,32,3.0,0.0,34,0.00,,,0.00,meteohub,2013-03-02 06:33:00,
2013-03-02 00:39:00,20.8,-3.1,30.30,NNE,32,3.0,4.0,34,0.00,,,0.00,meteohub,2013-03-02 06:39:00,
2013-03-02 00:44:00,20.8,-3.1,30.30,NNE,32,2.0,4.0,34,0.00,,,0.00,meteohub,2013-03-02 06:44:00,
2013-03-02 00:49:00,20.7,-3.3,30.30,NNE,32,0.0,4.0,34,0.00,,,0.00,meteohub,2013-03-02 06:49:00,
2013-03-02 00:54:00,20.5,-3.5,30.30,NNE,32,0.0,4.0,34,0.00,,,0.00,meteohub,2013-03-02 06:54:00,
2013-03-02 00:59:00,20.3,-3.6,30.30,NNE,31,0.0,4.0,34,0.00,,,0.00,meteohub,2013-03-02 06:59:00,
2013-03-02 01:04:00,19.9,-4.0,30.30,NNE,32,0.0,3.0,34,0.00,,,0.00,meteohub,2013-03-02 07:04:00,
2013-03-02 01:09:00,19.8,-4.0,30.30,NNE,32,0.0,0.0,34,0.00,,,0.00,meteohub,2013-03-02 07:09:00,
2013-03-02 01:14:00,19.6,-4.2,30.30,NNE,32,0.0,0.0,34,0.00,,,0.00,meteohub,2013-03-02 07:14:00,
2013-03-02 01:19:00,19.4,-4.4,30.30,NNE,32,0.0,0.0,34,0.00,,,0.00,meteohub,2013-03-02 07:19:00,
2013-03-02 01:24:00,19.2,-4.5,30.30,NNE,32,0.0,0.0,34,0.00,,,0.00,meteohub,2013-03-02 07:24:00,
2013-03-02 01:29:00,19.0,-4.7,30.30,NNE,32,0.0,0.0,34,0.00,,,0.00,meteohub,2013-03-02 07:29:00,
2013-03-02 01:34:00,19.2,-4.0,30.30,NNE,32,0.0,0.0,35,0.00,,,0.00,meteohub,2013-03-02 07:34:00,
2013-03-02 01:39:00,19.8,-2.9,30.30,NNE,31,0.0,0.0,36,0.00,,,0.00,meteohub,2013-03-02 07:39:00,
2013-03-02 01:44:00,19.9,-2.7,30.30,NNE,31,3.0,0.0,36,0.00,,,0.00,meteohub,2013-03-02 07:44:00,
2013-03-02 01:50:00,19.9,-2.2,30.30,NNE,30,3.0,4.0,37,0.00,,,0.00,meteohub,2013-03-02 07:50:00,
2013-03-02 01:55:00,19.8,-2.4,30.30,NNW,341,4.0,4.0,37,0.00,,,0.00,meteohub,2013-03-02 07:55:00,
2013-03-02 02:00:00,19.6,-3.1,30.30,NNW,339,4.0,5.0,36,0.00,,,0.00,meteohub,2013-03-02 08:00:00,
2013-03-02 02:05:00,19.4,-2.6,30.30,NNW,328,4.0,5.0,37,0.00,,,0.00,meteohub,2013-03-02 08:05:00,
2013-03-02 02:10:00,19.0,-2.9,30.30,NNW,332,3.0,5.0,37,0.00,,,0.00,meteohub,2013-03-02 08:10:00,
2013-03-02 02:15:00,18.9,-3.1,30.30,NNW,332,3.0,5.0,37,0.00,,,0.00,meteohub,2013-03-02 08:15:00,
2013-03-02 02:20:00,18.7,-2.7,30.30,NNW,332,3.0,4.0,38,0.00,,,0.00,meteohub,2013-03-02 08:20:00,
2013-03-02 02:25:00,18.7,-2.7,30.30,NNW,332,0.0,4.0,38,0.00,,,0.00,meteohub,2013-03-02 08:25:00,
2013-03-02 02:30:00,18.5,-2.9,30.30,North,357,0.0,4.0,38,0.00,,,0.00,meteohub,2013-03-02 08:30:00,
2013-03-02 02:35:00,18.5,-2.9,30.30,North,357,0.0,4.0,38,0.00,,,0.00,meteohub,2013-03-02 08:35:00,
2013-03-02 02:40:00,18.5,-2.9,30.30,North,357,0.0,4.0,38,0.00,,,0.00,meteohub,2013-03-02 08:40:00,
2013-03-02 02:45:00,18.5,-2.9,30.30,North,357,0.0,0.0,38,0.00,,,0.00,meteohub,2013-03-02 08:45:00,
2013-03-02 02:51:00,18.5,-2.9,30.30,North,357,0.0,0.0,38,0.00,,,0.00,meteohub,2013-03-02 08:51:00,
2013-03-02 02:56:00,18.5,-2.9,30.30,North,357,0.0,0.0,38,0.00,,,0.00,meteohub,2013-03-02 08:56:00,
2013-03-02 03:01:00,18.7,-2.2,30.30,North,357,0.0,0.0,39,0.00,,,0.00,meteohub,2013-03-02 09:01:00,
2013-03-02 03:06:00,18.5,-1.8,30.30,NW,324,0.0,5.0,40,0.00,,,0.00,meteohub,2013-03-02 09:06:00,
2013-03-02 03:11:00,18.3,-2.0,30.30,NW,326,0.0,5.0,40,0.00,,,0.00,meteohub,2013-03-02 09:11:00,
2013-03-02 03:16:00,18.3,-1.5,30.30,North,353,3.0,5.0,41,0.00,,,0.00,meteohub,2013-03-02 09:16:00,
2013-03-02 03:21:00,18.1,-1.1,30.30,NNW,341,4.0,5.0,42,0.00,,,0.00,meteohub,2013-03-02 09:21:00,
2013-03-02 03:26:00,17.8,-0.9,30.30,WNW,301,5.0,5.0,43,0.00,,,0.00,meteohub,2013-03-02 09:26:00,
2013-03-02 03:31:00,17.8,-0.9,30.30,North,353,0.0,5.0,43,0.00,,,0.00,meteohub,2013-03-02 09:31:00,
2013-03-02 03:36:00,17.6,-1.1,30.30,NNW,337,3.0,5.0,43,0.00,,,0.00,meteohub,2013-03-02 09:36:00,
2013-03-02 03:42:00,17.4,-1.3,30.30,NNW,337,3.0,5.0,43,0.00,,,0.00,meteohub,2013-03-02 09:42:00,
2013-03-02 03:47:00,17.1,-1.7,30.30,NNW,337,3.0,4.0,43,0.00,,,0.00,meteohub,2013-03-02 09:47:00,
2013-03-02 03:52:00,16.9,-1.8,30.30,NNW,337,3.0,4.0,43,0.00,,,0.00,meteohub,2013-03-02 09:52:00,
2013-03-02 03:57:00,16.9,-1.3,30.30,NNW,337,2.0,4.0,44,0.00,,,0.00,meteohub,2013-03-02 09:57:00,
2013-03-02 04:02:00,16.7,-1.5,30.30,NNW,343,2.0,4.0,44,0.00,,,0.00,meteohub,2013-03-02 10:02:00,
2013-03-02 04:15:00,16.9,-1.3,30.30,NNW,335,3.0,4.0,44,0.00,,,0.00,meteohub,2013-03-02 10:15:00,
2013-03-02 04:20:00,16.9,-1.3,30.30,WNW,303,0.0,4.0,44,0.00,,,0.00,meteohub,2013-03-02 10:20:00,
2013-03-02 04:26:00,16.9,-1.3,30.30,WNW,303,0.0,4.0,44,0.00,,,0.00,meteohub,2013-03-02 10:26:00,
2013-03-02 04:31:00,16.7,-1.5,30.30,WNW,303,0.0,3.0,44,0.00,,,0.00,meteohub,2013-03-02 10:31:00,
2013-03-02 04:36:00,16.5,-1.7,30.30,WNW,303,0.0,0.0,44,0.00,,,0.00,meteohub,2013-03-02 10:36:00,
2013-03-02 04:41:00,16.5,-1.7,30.30,WNW,303,0.0,0.0,44,0.00,,,0.00,meteohub,2013-03-02 10:41:00,
2013-03-02 04:46:00,16.5,-1.7,30.30,WNW,303,0.0,2.0,44,0.00,,,0.00,meteohub,2013-03-02 10:46:00,
2013-03-02 04:51:00,16.2,-1.8,30.30,NW,304,0.0,3.0,44,0.00,,,0.00,meteohub,2013-03-02 10:51:00,
2013-03-02 04:56:00,16.2,-1.8,30.30,WNW,303,0.0,3.0,44,0.00,,,0.00,meteohub,2013-03-02 10:56:00,
2013-03-02 05:01:00,16.2,-1.8,30.30,NW,304,0.0,3.0,44,0.00,,,0.00,meteohub,2013-03-02 11:01:00,
2013-03-02 05:06:00,16.0,-2.0,30.30,WNW,303,0.0,0.0,44,0.00,,,0.00,meteohub,2013-03-02 11:06:00,
2013-03-02 05:11:00,16.0,-2.0,30.30,WNW,303,0.0,3.0,44,0.00,,,0.00,meteohub,2013-03-02 11:11:00,
2013-03-02 05:16:00,16.0,-2.0,30.30,WNW,303,0.0,3.0,44,0.00,,,0.00,meteohub,2013-03-02 11:16:00,
2013-03-02 05:21:00,16.0,-2.0,30.30,WNW,303,0.0,3.0,44,0.00,,,0.00,meteohub,2013-03-02 11:21:00,
2013-03-02 05:26:00,15.8,-1.8,30.30,WNW,303,0.0,3.0,45,0.00,,,0.00,meteohub,2013-03-02 11:26:00,
2013-03-02 05:31:00,15.3,-2.7,30.30,WNW,303,0.0,3.0,44,0.00,,,0.00,meteohub,2013-03-02 11:31:00,
2013-03-02 05:37:00,15.1,-2.9,30.30,WNW,303,0.0,2.0,44,0.00,,,0.00,meteohub,2013-03-02 11:37:00,
2013-03-02 05:42:00,14.9,-2.6,30.30,WNW,303,0.0,2.0,45,0.00,,,0.00,meteohub,2013-03-02 11:42:00,
2013-03-02 05:47:00,15.1,-2.4,30.30,WNW,303,0.0,2.0,45,0.00,,,0.00,meteohub,2013-03-02 11:47:00,
2013-03-02 05:52:00,15.1,-2.4,30.30,WNW,303,0.0,2.0,45,0.00,,,0.00,meteohub,2013-03-02 11:52:00,
2013-03-02 05:57:00,15.1,-2.4,30.30,NW,304,0.0,0.0,45,0.00,,,0.00,meteohub,2013-03-02 11:57:00,
2013-03-02 06:02:00,14.9,-2.6,30.30,WNW,303,0.0,0.0,45,0.00,,,0.00,meteohub,2013-03-02 12:02:00,
2013-03-02 06:07:00,14.9,-2.6,30.30,NW,304,0.0,0.0,45,0.00,,,0.00,meteohub,2013-03-02 12:07:00,
2013-03-02 06:12:00,14.5,-3.5,30.30,WNW,303,0.0,0.0,44,0.00,,,0.00,meteohub,2013-03-02 12:12:00,
2013-03-02 06:17:00,14.4,-3.6,30.30,WNW,303,0.0,0.0,44,0.00,,,0.00,meteohub,2013-03-02 12:17:00,
2013-03-02 06:22:00,14.2,-3.8,30.30,WNW,303,0.0,0.0,44,0.00,,,0.00,meteohub,2013-03-02 12:22:00,
2013-03-02 06:27:00,14.2,-3.8,30.30,NW,304,0.0,0.0,44,0.00,,,0.00,meteohub,2013-03-02 12:27:00,
2013-03-02 06:32:00,14.2,-3.8,30.30,NW,304,0.0,0.0,44,0.00,,,0.00,meteohub,2013-03-02 12:32:00,
2013-03-02 06:37:00,14.2,-3.3,30.30,WNW,303,0.0,0.0,45,0.00,,,0.00,meteohub,2013-03-02 12:37:00,
2013-03-02 06:42:00,14.2,-3.3,30.30,WNW,303,0.0,0.0,45,0.00,,,0.00,meteohub,2013-03-02 12:42:00,
2013-03-02 06:47:00,14.2,-3.3,30.30,WNW,303,0.0,0.0,45,0.00,,,0.00,meteohub,2013-03-02 12:47:00,
2013-03-02 06:52:00,14.4,-3.1,30.30,WNW,303,0.0,0.0,45,0.00,,,0.00,meteohub,2013-03-02 12:52:00,
2013-03-02 06:57:00,14.5,-2.9,30.30,WNW,303,0.0,0.0,45,0.00,,,0.00,meteohub,2013-03-02 12:57:00,
2013-03-02 07:02:00,14.5,-2.9,30.30,WNW,303,0.0,0.0,45,0.00,,,0.00,meteohub,2013-03-02 13:02:00,
2013-03-02 07:07:00,14.7,-2.7,30.30,WNW,303,0.0,2.0,45,0.00,,,0.00,meteohub,2013-03-02 13:07:00,
2013-03-02 07:12:00,15.1,-2.4,30.30,West,270,4.0,6.0,45,0.00,,,0.00,meteohub,2013-03-02 13:12:00,
2013-03-02 07:17:00,15.3,-2.2,30.30,WNW,294,0.0,6.0,45,0.00,,,0.00,meteohub,2013-03-02 13:17:00,
2013-03-02 07:22:00,15.3,-2.2,30.30,West,281,0.0,6.0,45,0.00,,,0.00,meteohub,2013-03-02 13:22:00,
2013-03-02 07:27:00,15.6,-2.0,30.30,West,281,0.0,4.0,45,0.00,,,0.00,meteohub,2013-03-02 13:27:00,
2013-03-02 07:32:00,15.8,-1.8,30.30,West,281,0.0,3.0,45,0.00,,,0.00,meteohub,2013-03-02 13:32:00,
2013-03-02 07:37:00,16.2,-1.5,30.30,West,281,0.0,0.0,45,0.00,,,0.00,meteohub,2013-03-02 13:37:00,
2013-03-02 07:42:00,16.5,-1.1,30.30,WNW,282,0.0,0.0,45,0.00,,,0.00,meteohub,2013-03-02 13:42:00,
2013-03-02 07:47:00,16.7,-0.9,30.30,West,281,0.0,0.0,45,0.00,,,0.00,meteohub,2013-03-02 13:47:00,
2013-03-02 07:52:00,16.7,-1.5,30.30,West,281,0.0,0.0,44,0.00,,,0.00,meteohub,2013-03-02 13:52:00,
2013-03-02 07:57:00,16.9,-1.3,30.30,West,281,0.0,0.0,44,0.00,,,0.00,meteohub,2013-03-02 13:57:00,
2013-03-02 08:02:00,16.9,-1.3,30.30,West,281,0.0,0.0,44,0.00,,,0.00,meteohub,2013-03-02 14:02:00,
2013-03-02 08:07:00,17.1,-1.1,30.30,West,281,0.0,0.0,44,0.00,,,0.00,meteohub,2013-03-02 14:07:00,
2013-03-02 08:12:00,17.4,-0.8,30.30,West,281,0.0,0.0,44,0.00,,,0.00,meteohub,2013-03-02 14:12:00,
2013-03-02 08:17:00,18.1,0.0,30.30,West,281,0.0,0.0,44,0.00,,,0.00,meteohub,2013-03-02 14:17:00,
2013-03-02 08:22:00,18.5,0.1,30.30,West,281,0.0,0.0,44,0.00,,,0.00,meteohub,2013-03-02 14:22:00,
2013-03-02 08:27:00,19.0,0.7,30.30,West,281,0.0,0.0,44,0.00,,,0.00,meteohub,2013-03-02 14:27:00,
2013-03-02 08:32:00,19.4,1.0,30.30,West,281,0.0,0.0,44,0.00,,,0.00,meteohub,2013-03-02 14:32:00,
2013-03-02 08:37:00,19.9,1.0,30.30,West,281,0.0,0.0,43,0.00,,,0.00,meteohub,2013-03-02 14:37:00,
2013-03-02 08:42:00,20.3,1.4,30.30,West,281,0.0,0.0,43,0.00,,,0.00,meteohub,2013-03-02 14:42:00,
2013-03-02 08:47:00,20.8,1.9,30.30,WNW,282,0.0,0.0,43,0.00,,,0.00,meteohub,2013-03-02 14:47:00,
2013-03-02 08:52:00,21.6,2.5,30.30,West,281,0.0,0.0,43,0.00,,,0.00,meteohub,2013-03-02 14:52:00,
2013-03-02 08:57:00,22.1,2.5,30.30,West,281,0.0,0.0,42,0.00,,,0.00,meteohub,2013-03-02 14:57:00,
2013-03-02 09:02:00,22.3,2.1,30.30,West,281,0.0,0.0,41,0.00,,,0.00,meteohub,2013-03-02 15:02:00,
2013-03-02 09:07:00,23.4,2.7,30.30,West,281,0.0,0.0,40,0.00,,,0.00,meteohub,2013-03-02 15:07:00,
2013-03-02 09:12:00,25.7,5.7,30.30,West,281,0.0,0.0,42,0.00,,,0.00,meteohub,2013-03-02 15:12:00,
2013-03-02 09:17:00,27.5,6.8,30.30,West,281,0.0,0.0,41,0.00,,,0.00,meteohub,2013-03-02 15:17:00,
2013-03-02 09:22:00,28.6,5.5,30.30,West,281,0.0,0.0,37,0.00,,,0.00,meteohub,2013-03-02 15:22:00,
2013-03-02 09:27:00,28.4,3.0,30.30,West,281,0.0,0.0,33,0.00,,,0.00,meteohub,2013-03-02 15:27:00,
2013-03-02 09:32:00,28.8,2.7,30.30,West,281,0.0,0.0,32,0.00,,,0.00,meteohub,2013-03-02 15:32:00,
2013-03-02 09:37:00,28.6,-0.4,30.30,West,272,0.0,0.0,28,0.00,,,0.00,meteohub,2013-03-02 15:37:00,
2013-03-02 09:42:00,28.6,-0.4,30.30,South,178,0.0,3.0,28,0.00,,,0.00,meteohub,2013-03-02 15:42:00,
2013-03-02 09:47:00,29.3,-2.2,30.27,SSE,164,0.0,3.0,25,0.00,,,0.00,meteohub,2013-03-02 15:47:00,
2013-03-02 09:52:00,29.8,-1.7,30.27,SSE,162,0.0,4.0,25,0.00,,,0.00,meteohub,2013-03-02 15:52:00,
2013-03-02 09:57:00,31.8,0.0,30.27,SSE,162,0.0,4.0,25,0.00,,,0.00,meteohub,2013-03-02 15:57:00,
2013-03-02 10:02:00,32.9,0.9,30.27,SSE,162,0.0,3.0,25,0.00,,,0.00,meteohub,2013-03-02 16:02:00,
2013-03-02 10:07:00,32.5,0.7,30.27,SSE,162,0.0,0.0,25,0.00,,,0.00,meteohub,2013-03-02 16:07:00,
2013-03-02 10:12:00,32.7,0.7,30.27,SSE,162,0.0,0.0,25,0.00,,,0.00,meteohub,2013-03-02 16:12:00,
2013-03-02 10:18:00,33.1,-0.8,30.27,SW,223,0.0,0.0,23,0.00,,,0.00,meteohub,2013-03-02 16:18:00,
2013-03-02 10:23:00,33.8,1.8,30.27,SW,224,0.0,0.0,25,0.00,,,0.00,meteohub,2013-03-02 16:23:00,
2013-03-02 10:28:00,33.8,-1.1,30.27,SW,224,0.0,0.0,22,0.00,,,0.00,meteohub,2013-03-02 16:28:00,
2013-03-02 10:33:00,33.6,-0.2,30.27,West,260,0.0,0.0,23,0.00,,,0.00,meteohub,2013-03-02 16:33:00,
2013-03-02 10:38:00,33.4,-0.4,30.27,West,264,0.0,0.0,23,0.00,,,0.00,meteohub,2013-03-02 16:38:00,
2013-03-02 10:43:00,33.8,-1.1,30.27,West,268,0.0,0.0,22,0.00,,,0.00,meteohub,2013-03-02 16:43:00,
2013-03-02 10:48:00,34.0,-0.9,30.27,West,268,0.0,0.0,22,0.00,,,0.00,meteohub,2013-03-02 16:48:00,
2013-03-02 10:53:00,34.9,0.0,30.27,West,268,0.0,0.0,22,0.00,,,0.00,meteohub,2013-03-02 16:53:00,
2013-03-02 10:58:00,35.1,0.0,30.27,West,268,0.0,0.0,22,0.00,,,0.00,meteohub,2013-03-02 16:58:00,
2013-03-02 11:03:00,35.8,0.7,30.27,West,267,0.0,0.0,22,0.00,,,0.00,meteohub,2013-03-02 17:03:00,
2013-03-02 11:08:00,36.1,0.9,30.27,West,268,0.0,0.0,22,0.00,,,0.00,meteohub,2013-03-02 17:08:00,
2013-03-02 11:13:00,36.3,1.0,30.27,West,267,0.0,3.0,22,0.00,,,0.00,meteohub,2013-03-02 17:13:00,
2013-03-02 11:18:00,37.0,1.8,30.24,West,268,0.0,3.0,22,0.00,,,0.00,meteohub,2013-03-02 17:18:00,
2013-03-02 11:24:00,37.4,1.0,30.24,West,268,0.0,0.0,21,0.00,,,0.00,meteohub,2013-03-02 17:24:00,
2013-03-02 11:29:00,37.8,1.4,30.24,SW,236,4.0,0.0,21,0.00,,,0.00,meteohub,2013-03-02 17:29:00,
2013-03-02 11:34:00,37.6,1.2,30.24,SSW,194,5.0,5.0,21,0.00,,,0.00,meteohub,2013-03-02 17:34:00,
2013-03-02 11:39:00,37.2,1.9,30.24,SSW,194,0.0,6.0,22,0.00,,,0.00,meteohub,2013-03-02 17:39:00,
2013-03-02 11:44:00,38.5,1.9,30.24,SSW,207,0.0,6.0,21,0.00,,,0.00,meteohub,2013-03-02 17:44:00,
2013-03-02 11:49:00,39.0,2.3,30.24,SSE,158,3.0,6.0,21,0.00,,,0.00,meteohub,2013-03-02 17:49:00,
2013-03-02 11:54:00,38.1,1.6,30.24,South,176,0.0,6.0,21,0.00,,,0.00,meteohub,2013-03-02 17:54:00,
2013-03-02 11:59:00,38.5,1.9,30.24,SSW,192,0.0,6.0,21,0.00,,,0.00,meteohub,2013-03-02 17:59:00,
2013-03-02 12:04:00,40.3,3.4,30.24,SW,222,0.0,6.0,21,0.00,,,0.00,meteohub,2013-03-02 18:04:00,
2013-03-02 12:09:00,41.0,4.1,30.24,NNW,348,3.0,6.0,21,0.00,,,0.00,meteohub,2013-03-02 18:09:00,
2013-03-02 12:14:00,40.8,3.9,30.24,NNW,346,4.0,4.0,21,0.00,,,0.00,meteohub,2013-03-02 18:14:00,
2013-03-02 12:19:00,40.3,3.4,30.24,NNW,345,0.0,4.0,21,0.00,,,0.00,meteohub,2013-03-02 18:19:00,
2013-03-02 12:24:00,40.8,3.9,30.24,WNW,291,2.0,4.0,21,0.00,,,0.00,meteohub,2013-03-02 18:24:00,
2013-03-02 12:30:00,41.0,4.1,30.24,South,174,6.0,6.0,21,0.00,,,0.00,meteohub,2013-03-02 18:30:00,
2013-03-02 12:35:00,39.0,2.3,30.24,SSE,157,4.0,6.0,21,0.00,,,0.00,meteohub,2013-03-02 18:35:00,
2013-03-02 12:40:00,38.5,1.9,30.24,SSW,192,3.0,6.0,21,0.00,,,0.00,meteohub,2013-03-02 18:40:00,
2013-03-02 12:45:00,38.7,2.1,30.21,SSE,151,0.0,6.0,21,0.00,,,0.00,meteohub,2013-03-02 18:45:00,
2013-03-02 12:50:00,38.8,2.3,30.21,South,179,8.0,8.0,21,0.00,,,0.00,meteohub,2013-03-02 18:50:00,
2013-03-02 12:55:00,38.1,1.6,30.21,SSW,206,3.0,8.0,21,0.00,,,0.00,meteohub,2013-03-02 18:55:00,
2013-03-02 13:00:00,38.1,1.6,30.21,SSW,202,4.0,8.0,21,0.00,,,0.00,meteohub,2013-03-02 19:00:00,
2013-03-02 13:05:00,38.5,1.9,30.21,SSW,192,4.0,8.0,21,0.00,,,0.00,meteohub,2013-03-02 19:05:00,
2013-03-02 13:10:00,38.1,1.6,30.21,SSE,157,4.0,8.0,21,0.00,,,0.00,meteohub,2013-03-02 19:10:00,
2013-03-02 13:15:00,38.1,1.6,30.18,SSE,154,6.0,8.0,21,0.00,,,0.00,meteohub,2013-03-02 19:15:00,
2013-03-02 13:21:00,38.1,1.6,30.18,SSE,150,3.0,11.0,21,0.00,,,0.00,meteohub,2013-03-02 19:21:00,
2013-03-02 13:26:00,38.3,1.8,30.18,SE,142,5.0,11.0,21,0.00,,,0.00,meteohub,2013-03-02 19:26:00,
2013-03-02 13:31:00,38.7,2.1,30.18,SSE,159,6.0,11.0,21,0.00,,,0.00,meteohub,2013-03-02 19:31:00,
2013-03-02 13:36:00,38.5,1.9,30.18,SSE,153,6.0,8.0,21,0.00,,,0.00,meteohub,2013-03-02 19:36:00,
2013-03-02 13:41:00,38.3,1.8,30.18,SSE,167,3.0,8.0,21,0.00,,,0.00,meteohub,2013-03-02 19:41:00,
2013-03-02 13:46:00,38.5,1.9,30.18,South,170,6.0,8.0,21,0.00,,,0.00,meteohub,2013-03-02 19:46:00,
2013-03-02 13:51:00,38.5,1.9,30.18,SSE,154,5.0,8.0,21,0.00,,,0.00,meteohub,2013-03-02 19:51:00,
2013-03-02 13:56:00,38.7,2.1,30.18,South,179,6.0,8.0,21,0.00,,,0.00,meteohub,2013-03-02 19:56:00,
2013-03-02 14:01:00,39.4,2.7,30.18,SSE,155,4.0,8.0,21,0.00,,,0.00,meteohub,2013-03-02 20:01:00,
2013-03-02 14:06:00,40.1,3.2,30.18,SE,146,5.0,8.0,21,0.00,,,0.00,meteohub,2013-03-02 20:06:00,
2013-03-02 14:11:00,39.6,2.8,30.18,SSW,198,4.0,8.0,21,0.00,,,0.00,meteohub,2013-03-02 20:11:00,
2013-03-02 14:16:00,39.7,3.0,30.18,SSE,155,0.0,8.0,21,0.00,,,0.00,meteohub,2013-03-02 20:16:00,
2013-03-02 14:22:00,40.6,3.7,30.18,SSW,196,5.0,8.0,21,0.00,,,0.00,meteohub,2013-03-02 20:22:00,
2013-03-02 14:27:00,41.2,4.1,30.18,SW,222,5.0,11.0,21,0.00,,,0.00,meteohub,2013-03-02 20:27:00,
2013-03-02 14:32:00,41.5,4.5,30.18,SSW,197,2.0,11.0,21,0.00,,,0.00,meteohub,2013-03-02 20:32:00,
2013-03-02 14:37:00,41.4,4.3,30.18,South,176,7.0,8.0,21,0.00,,,0.00,meteohub,2013-03-02 20:37:00,
2013-03-02 14:42:00,41.2,4.1,30.18,SSW,210,5.0,9.0,21,0.00,,,0.00,meteohub,2013-03-02 20:42:00,
2013-03-02 14:47:00,41.4,4.3,30.15,SW,217,8.0,9.0,21,0.00,,,0.00,meteohub,2013-03-02 20:47:00,
2013-03-02 14:52:00,41.2,4.1,30.15,South,187,3.0,9.0,21,0.00,,,0.00,meteohub,2013-03-02 20:52:00,
2013-03-02 14:57:00,41.4,4.3,30.15,South,181,4.0,10.0,21,0.00,,,0.00,meteohub,2013-03-02 20:57:00,
2013-03-02 15:02:00,41.7,4.6,30.15,SSW,194,5.0,10.0,21,0.00,,,0.00,meteohub,2013-03-02 21:02:00,
2013-03-02 15:07:00,42.1,5.0,30.15,SSW,213,6.0,10.0,21,0.00,,,0.00,meteohub,2013-03-02 21:07:00,
2013-03-02 15:12:00,42.3,5.2,30.15,SSW,200,6.0,10.0,21,0.00,,,0.00,meteohub,2013-03-02 21:12:00,
2013-03-02 15:17:00,42.1,5.0,30.15,SSW,206,8.0,11.0,21,0.00,,,0.00,meteohub,2013-03-02 21:17:00,
2013-03-02 15:22:00,42.4,5.2,30.15,South,191,5.0,11.0,21,0.00,,,0.00,meteohub,2013-03-02 21:22:00,
2013-03-02 15:27:00,42.3,5.2,30.15,SSE,167,8.0,11.0,21,0.00,,,0.00,meteohub,2013-03-02 21:27:00,
2013-03-02 15:32:00,41.9,4.8,30.12,SSE,159,6.0,11.0,21,0.00,,,0.00,meteohub,2013-03-02 21:32:00,
2013-03-02 15:37:00,41.7,4.6,30.12,SW,219,6.0,13.0,21,0.00,,,0.00,meteohub,2013-03-02 21:37:00,
2013-03-02 15:42:00,41.7,4.6,30.12,SSW,192,6.0,13.0,21,0.00,,,0.00,meteohub,2013-03-02 21:42:00,
2013-03-02 15:47:00,42.1,5.0,30.15,SW,229,5.0,11.0,21,0.00,,,0.00,meteohub,2013-03-02 21:47:00,
2013-03-02 15:52:00,42.3,5.2,30.15,SSW,203,9.0,9.0,21,0.00,,,0.00,meteohub,2013-03-02 21:52:00,
2013-03-02 15:57:00,42.1,5.0,30.15,SSW,192,5.0,10.0,21,0.00,,,0.00,meteohub,2013-03-02 21:57:00,
2013-03-02 16:02:00,41.9,4.8,30.12,South,188,6.0,10.0,21,0.00,,,0.00,meteohub,2013-03-02 22:02:00,
2013-03-02 16:07:00,42.3,5.2,30.12,SW,229,6.0,10.0,21,0.00,,,0.00,meteohub,2013-03-02 22:07:00,
2013-03-02 16:12:00,42.4,5.2,30.12,West,266,8.0,11.0,21,0.00,,,0.00,meteohub,2013-03-02 22:12:00,
2013-03-02 16:17:00,42.4,5.2,30.12,South,191,6.0,11.0,21,0.00,,,0.00,meteohub,2013-03-02 22:17:00,
2013-03-02 16:22:00,42.4,5.2,30.12,SSE,168,5.0,11.0,21,0.00,,,0.00,meteohub,2013-03-02 22:22:00,
2013-03-02 16:27:00,42.6,5.4,30.12,SSW,202,8.0,10.0,21,0.00,,,0.00,meteohub,2013-03-02 22:27:00,
2013-03-02 16:32:00,42.8,4.5,30.12,South,185,6.0,9.0,20,0.00,,,0.00,meteohub,2013-03-02 22:32:00,
2013-03-02 16:37:00,42.3,5.2,30.12,SSE,160,6.0,11.0,21,0.00,,,0.00,meteohub,2013-03-02 22:37:00,
2013-03-02 16:42:00,42.1,5.0,30.12,SSW,212,6.0,11.0,21,0.00,,,0.00,meteohub,2013-03-02 22:42:00,
2013-03-02 16:47:00,42.1,5.0,30.12,SSW,200,8.0,10.0,21,0.00,,,0.00,meteohub,2013-03-02 22:47:00,
2013-03-02 16:52:00,42.1,5.0,30.12,SSW,199,5.0,10.0,21,0.00,,,0.00,meteohub,2013-03-02 22:52:00,
2013-03-02 16:57:00,41.9,4.8,30.12,South,171,8.0,10.0,21,0.00,,,0.00,meteohub,2013-03-02 22:57:00,
2013-03-02 17:02:00,41.7,4.6,30.12,SSW,209,4.0,11.0,21,0.00,,,0.00,meteohub,2013-03-02 23:02:00,
2013-03-02 17:07:00,41.7,4.6,30.12,SSW,197,6.0,11.0,21,0.00,,,0.00,meteohub,2013-03-02 23:07:00,
2013-03-02 17:12:00,41.5,4.5,30.12,South,179,4.0,10.0,21,0.00,,,0.00,meteohub,2013-03-02 23:12:00,
2013-03-02 17:17:00,41.5,4.5,30.12,SW,214,8.0,10.0,21,0.00,,,0.00,meteohub,2013-03-02 23:17:00,
2013-03-02 17:22:00,41.4,4.3,30.12,SSW,195,9.0,10.0,21,0.00,,,0.00,meteohub,2013-03-02 23:22:00,
2013-03-02 17:27:00,41.4,4.3,30.12,SSW,195,6.0,10.0,21,0.00,,,0.00,meteohub,2013-03-02 23:27:00,
2013-03-02 17:32:00,41.2,4.1,30.12,SSW,196,5.0,10.0,21,0.00,,,0.00,meteohub,2013-03-02 23:32:00,
2013-03-02 17:37:00,41.0,4.1,30.12,South,187,6.0,11.0,21,0.00,,,0.00,meteohub,2013-03-02 23:37:00,
2013-03-02 17:42:00,41.0,4.1,30.12,South,173,5.0,11.0,21,0.00,,,0.00,meteohub,2013-03-02 23:42:00,
2013-03-02 17:47:00,40.8,3.9,30.12,SSW,192,5.0,11.0,21,0.00,,,0.00,meteohub,2013-03-02 23:47:00,
2013-03-02 17:52:00,40.6,3.7,30.12,SSW,194,5.0,8.0,21,0.00,,,0.00,meteohub,2013-03-02 23:52:00,
2013-03-02 17:57:00,40.5,3.6,30.12,South,188,6.0,9.0,21,0.00,,,0.00,meteohub,2013-03-02 23:57:00,
2013-03-02 18:02:00,40.3,3.4,30.09,South,178,6.0,9.0,21,0.00,,,0.00,meteohub,2013-03-03 00:02:00,
2013-03-02 18:07:00,39.9,3.2,30.09,South,191,4.0,9.0,21,0.00,,,0.00,meteohub,2013-03-03 00:07:00,
2013-03-02 18:12:00,39.7,3.0,30.09,South,179,5.0,8.0,21,0.00,,,0.00,meteohub,2013-03-03 00:12:00,
2013-03-02 18:17:00,39.6,2.8,30.09,South,170,4.0,8.0,21,0.00,,,0.00,meteohub,2013-03-03 00:17:00,
2013-03-02 18:22:00,39.2,2.5,30.09,SSE,165,4.0,8.0,21,0.00,,,0.00,meteohub,2013-03-03 00:22:00,
2013-03-02 18:27:00,39.0,2.3,30.09,South,180,5.0,8.0,21,0.00,,,0.00,meteohub,2013-03-03 00:27:00,
2013-03-02 18:32:00,38.7,2.1,30.09,South,191,4.0,6.0,21,0.00,,,0.00,meteohub,2013-03-03 00:32:00,
2013-03-02 18:37:00,38.5,1.9,30.09,SSW,203,5.0,6.0,21,0.00,,,0.00,meteohub,2013-03-03 00:37:00,
2013-03-02 18:42:00,38.3,1.8,30.09,South,180,5.0,6.0,21,0.00,,,0.00,meteohub,2013-03-03 00:42:00,
2013-03-02 18:47:00,38.1,1.6,30.09,South,182,6.0,7.0,21,0.00,,,0.00,meteohub,2013-03-03 00:47:00,
2013-03-02 18:52:00,37.9,1.4,30.09,South,179,5.0,7.0,21,0.00,,,0.00,meteohub,2013-03-03 00:52:00,
2013-03-02 18:57:00,37.6,1.2,30.09,South,185,6.0,7.0,21,0.00,,,0.00,meteohub,2013-03-03 00:57:00,
2013-03-02 19:02:00,37.6,1.2,30.09,South,180,4.0,6.0,21,0.00,,,0.00,meteohub,2013-03-03 01:02:00,
2013-03-02 19:07:00,37.4,1.0,30.09,South,181,6.0,6.0,21,0.00,,,0.00,meteohub,2013-03-03 01:07:00,
2013-03-02 19:12:00,37.4,1.0,30.09,South,181,0.0,7.0,21,0.00,,,0.00,meteohub,2013-03-03 01:12:00,
2013-03-02 19:17:00,37.0,1.8,30.09,South,185,3.0,7.0,22,0.00,,,0.00,meteohub,2013-03-03 01:17:00,
2013-03-02 19:22:00,36.9,1.6,30.09,SSW,194,4.0,6.0,22,0.00,,,0.00,meteohub,2013-03-03 01:22:00,
2013-03-02 19:27:00,36.7,1.4,30.09,South,191,5.0,6.0,22,0.00,,,0.00,meteohub,2013-03-03 01:27:00,
2013-03-02 19:32:00,36.7,1.4,30.09,South,185,4.0,6.0,22,0.00,,,0.00,meteohub,2013-03-03 01:32:00,
2013-03-02 19:37:00,36.3,1.0,30.09,SSW,201,5.0,6.0,22,0.00,,,0.00,meteohub,2013-03-03 01:37:00,
2013-03-02 19:42:00,36.1,0.9,30.09,South,191,4.0,6.0,22,0.00,,,0.00,meteohub,2013-03-03 01:42:00,
2013-03-02 19:47:00,35.8,0.7,30.09,South,174,4.0,6.0,22,0.00,,,0.00,meteohub,2013-03-03 01:47:00,
2013-03-02 19:52:00,35.6,0.5,30.09,SSW,202,4.0,6.0,22,0.00,,,0.00,meteohub,2013-03-03 01:52:00,
2013-03-02 19:57:00,35.4,0.3,30.09,SSW,202,3.0,6.0,22,0.00,,,0.00,meteohub,2013-03-03 01:57:00,
2013-03-02 20:02:00,35.2,0.1,30.09,South,176,4.0,5.0,22,0.00,,,0.00,meteohub,2013-03-03 02:02:00,
2013-03-02 20:07:00,35.4,0.3,30.09,South,178,3.0,6.0,22,0.00,,,0.00,meteohub,2013-03-03 02:07:00,
2013-03-02 20:12:00,35.2,0.1,30.09,SSW,211,6.0,6.0,22,0.00,,,0.00,meteohub,2013-03-03 02:12:00,
2013-03-02 20:17:00,35.2,0.1,30.09,SSW,194,8.0,8.0,22,0.00,,,0.00,meteohub,2013-03-03 02:17:00,
2013-03-02 20:22:00,35.2,0.1,30.09,South,177,6.0,8.0,22,0.00,,,0.00,meteohub,2013-03-03 02:22:00,
2013-03-02 20:27:00,35.1,0.0,30.09,South,171,6.0,8.0,22,0.00,,,0.00,meteohub,2013-03-03 02:27:00,
2013-03-02 20:33:00,35.1,0.0,30.09,SSW,193,6.0,8.0,22,0.00,,,0.00,meteohub,2013-03-03 02:33:00,
2013-03-02 20:38:00,34.9,0.0,30.09,SSW,196,7.0,8.0,22,0.00,,,0.00,meteohub,2013-03-03 02:38:00,
2013-03-02 20:43:00,34.9,0.0,30.09,SSW,195,4.0,6.0,22,0.00,,,0.00,meteohub,2013-03-03 02:43:00,
2013-03-02 20:48:00,34.9,0.0,30.09,SSW,202,4.0,9.0,22,0.00,,,0.00,meteohub,2013-03-03 02:48:00,
2013-03-02 20:53:00,34.9,0.0,30.09,SSW,203,4.0,9.0,22,0.00,,,0.00,meteohub,2013-03-03 02:53:00,
2013-03-02 20:58:00,34.9,0.0,30.09,SW,229,4.0,6.0,22,0.00,,,0.00,meteohub,2013-03-03 02:58:00,
2013-03-02 21:03:00,34.9,0.0,30.09,SSW,195,6.0,6.0,22,0.00,,,0.00,meteohub,2013-03-03 03:03:00,
2013-03-02 21:08:00,34.9,0.0,30.09,SSW,193,3.0,6.0,22,0.00,,,0.00,meteohub,2013-03-03 03:08:00,
2013-03-02 21:13:00,34.7,-0.2,30.09,SSW,200,4.0,6.0,22,0.00,,,0.00,meteohub,2013-03-03 03:13:00,
2013-03-02 21:18:00,34.5,-0.4,30.09,SSW,199,4.0,6.0,22,0.00,,,0.00,meteohub,2013-03-03 03:18:00,
2013-03-02 21:23:00,34.5,-0.4,30.09,SSW,204,6.0,8.0,22,0.00,,,0.00,meteohub,2013-03-03 03:23:00,
2013-03-02 21:29:00,34.5,-0.4,30.09,South,187,4.0,8.0,22,0.00,,,0.00,meteohub,2013-03-03 03:29:00,
2013-03-02 21:34:00,34.3,-0.6,30.09,South,186,6.0,8.0,22,0.00,,,0.00,meteohub,2013-03-03 03:34:00,
2013-03-02 21:39:00,34.3,-0.6,30.09,South,182,4.0,6.0,22,0.00,,,0.00,meteohub,2013-03-03 03:39:00,
2013-03-02 21:44:00,34.2,-0.8,30.09,South,186,3.0,6.0,22,0.00,,,0.00,meteohub,2013-03-03 03:44:00,
2013-03-02 21:49:00,34.0,-0.9,30.06,South,176,4.0,6.0,22,0.00,,,0.00,meteohub,2013-03-03 03:49:00,
2013-03-02 21:54:00,33.8,-1.1,30.06,South,179,6.0,6.0,22,0.00,,,0.00,meteohub,2013-03-03 03:54:00,
2013-03-02 21:59:00,33.8,-1.1,30.06,South,186,4.0,6.0,22,0.00,,,0.00,meteohub,2013-03-03 03:59:00,
2013-03-02 22:04:00,33.8,-1.1,30.06,South,171,5.0,6.0,22,0.00,,,0.00,meteohub,2013-03-03 04:04:00,
2013-03-02 22:09:00,33.8,-1.1,30.06,SSW,195,3.0,8.0,22,0.00,,,0.00,meteohub,2013-03-03 04:09:00,
2013-03-02 22:14:00,33.8,-1.1,30.06,SSE,167,8.0,8.0,22,0.00,,,0.00,meteohub,2013-03-03 04:14:00,
2013-03-02 22:19:00,33.8,-1.1,30.06,South,186,6.0,8.0,22,0.00,,,0.00,meteohub,2013-03-03 04:19:00,
2013-03-02 22:24:00,33.8,-1.1,30.06,SSW,198,4.0,9.0,22,0.00,,,0.00,meteohub,2013-03-03 04:24:00,
2013-03-02 22:30:00,33.8,-1.1,30.06,SSW,199,4.0,9.0,22,0.00,,,0.00,meteohub,2013-03-03 04:30:00,
2013-03-02 22:35:00,33.8,-1.1,30.06,SSW,197,3.0,8.0,22,0.00,,,0.00,meteohub,2013-03-03 04:35:00,
2013-03-02 22:40:00,33.8,1.8,30.06,SW,217,3.0,8.0,25,0.00,,,0.00,meteohub,2013-03-03 04:40:00,
2013-03-02 22:45:00,33.8,1.8,30.06,SW,228,4.0,6.0,25,0.00,,,0.00,meteohub,2013-03-03 04:45:00,
2013-03-02 22:50:00,33.8,1.8,30.06,SSW,200,4.0,6.0,25,0.00,,,0.00,meteohub,2013-03-03 04:50:00,
2013-03-02 22:55:00,34.0,1.8,30.06,South,190,5.0,6.0,25,0.00,,,0.00,meteohub,2013-03-03 04:55:00,
2013-03-02 23:00:00,34.0,1.8,30.06,South,181,5.0,6.0,25,0.00,,,0.00,meteohub,2013-03-03 05:00:00,
2013-03-02 23:01:00,34.0,1.8,30.06,South,190,7.0,7.0,25,0.00,,,0.00,meteohub,2013-03-03 05:01:00,
2013-03-02 23:07:00,34.0,1.8,30.06,SSW,211,5.0,8.0,25,0.00,,,0.00,meteohub,2013-03-03 05:07:00,
2013-03-02 23:12:00,34.0,1.8,30.06,SSW,212,5.0,8.0,25,0.00,,,0.00,meteohub,2013-03-03 05:12:00,
2013-03-02 23:17:00,34.0,1.8,30.06,SSW,203,5.0,8.0,25,0.00,,,0.00,meteohub,2013-03-03 05:17:00,
2013-03-02 23:22:00,34.0,1.8,30.06,South,191,4.0,8.0,25,0.00,,,0.00,meteohub,2013-03-03 05:22:00,
2013-03-02 23:27:00,34.0,1.8,30.06,SSW,192,6.0,8.0,25,0.00,,,0.00,meteohub,2013-03-03 05:27:00,
2013-03-02 23:32:00,33.8,1.8,30.04,South,178,5.0,8.0,25,0.00,,,0.00,meteohub,2013-03-03 05:32:00,
2013-03-02 23:37:00,33.8,1.8,30.04,SW,216,4.0,8.0,25,0.00,,,0.00,meteohub,2013-03-03 05:37:00,
2013-03-02 23:42:00,33.8,1.8,30.04,South,185,5.0,8.0,25,0.00,,,0.00,meteohub,2013-03-03 05:42:00,
2013-03-02 23:47:00,33.6,1.6,30.04,South,184,5.0,8.0,25,0.00,,,0.00,meteohub,2013-03-03 05:47:00,
2013-03-02 23:52:00,33.6,3.9,30.04,South,179,5.0,6.0,28,0.00,,,0.00,meteohub,2013-03-03 05:52:00,
2013-03-02 23:57:00,33.6,3.9,30.04,South,169,4.0,6.0,28,0.00,,,0.00,meteohub,2013-03-03 05:57:00,